sensor_id;sensor_type;location;lat;lon;timestamp;pressure;altitude;pressure_sealevel;temperature;humidity
6599;BME280;3335;43.198;27.918;2023-02-18T00:00:05;148534.38;;;5.02;100.00
6599;BME280;3335;43.198;27.918;2023-02-18T00:02:32;148521.94;;;4.97;100.00
6599;BME280;3335;43.198;27.918;2023-02-18T00:04:59;148534.38;;;5.02;100.00
6599;BME280;3335;43.198;27.918;2023-02-18T00:07:26;148541.81;;;5.05;100.00
6599;BME280;3335;43.198;27.918;2023-02-18T00:09:53;148529.38;;;5.00;100.00
6599;BME280;3335;43.198;27.918;2023-02-18T00:12:20;148531.88;;;5.01;100.00
6599;BME280;3335;43.198;27.918;2023-02-18T00:14:48;148499.56;;;4.88;100.00
6599;BME280;3335;43.198;27.918;2023-02-18T00:17:15;148512.00;;;4.93;100.00
6599;BME280;3335;43.198;27.918;2023-02-18T00:19:42;148503.25;;;4.90;100.00
6599;BME280;3335;43.198;27.918;2023-02-18T00:22:09;148512.00;;;4.93;100.00
6599;BME280;3335;43.198;27.918;2023-02-18T00:24:36;148526.88;;;4.99;100.00
6599;BME280;3335;43.198;27.918;2023-02-18T00:27:03;148520.69;;;4.97;100.00
6599;BME280;3335;43.198;27.918;2023-02-18T00:29:31;148509.50;;;4.92;100.00
6599;BME280;3335;43.198;27.918;2023-02-18T00:31:59;148509.50;;;4.92;100.00
6599;BME280;3335;43.198;27.918;2023-02-18T00:34:26;148512.00;;;4.93;100.00
6599;BME280;3335;43.198;27.918;2023-02-18T00:36:53;148513.25;;;4.94;100.00
6599;BME280;3335;43.198;27.918;2023-02-18T00:39:20;148514.50;;;4.94;100.00
6599;BME280;3335;43.198;27.918;2023-02-18T00:41:47;148502.06;;;4.89;100.00
6599;BME280;3335;43.198;27.918;2023-02-18T00:44:14;148493.31;;;4.85;100.00
6599;BME280;3335;43.198;27.918;2023-02-18T00:46:41;148534.38;;;5.02;100.00
6599;BME280;3335;43.198;27.918;2023-02-18T00:49:09;148523.19;;;4.98;100.00
6599;BME280;3335;43.198;27.918;2023-02-18T00:51:36;148493.31;;;4.85;100.00
6599;BME280;3335;43.198;27.918;2023-02-18T00:54:03;148507.00;;;4.91;100.00
6599;BME280;3335;43.198;27.918;2023-02-18T00:56:30;148514.50;;;4.94;100.00
6599;BME280;3335;43.198;27.918;2023-02-18T00:58:57;148524.44;;;4.98;100.00
6599;BME280;3335;43.198;27.918;2023-02-18T01:01:24;148516.94;;;4.95;100.00
6599;BME280;3335;43.198;27.918;2023-02-18T01:03:52;148521.94;;;4.97;100.00
6599;BME280;3335;43.198;27.918;2023-02-18T01:06:20;148512.00;;;4.93;100.00
6599;BME280;3335;43.198;27.918;2023-02-18T01:08:48;148510.75;;;4.93;100.00
6599;BME280;3335;43.198;27.918;2023-02-18T01:11:15;148508.25;;;4.92;100.00
6599;BME280;3335;43.198;27.918;2023-02-18T01:13:42;148497.06;;;4.87;100.00
6599;BME280;3335;43.198;27.918;2023-02-18T01:16:09;148495.81;;;4.87;100.00
6599;BME280;3335;43.198;27.918;2023-02-18T01:18:37;148494.56;;;4.86;100.00
6599;BME280;3335;43.198;27.918;2023-02-18T01:21:05;148493.31;;;4.85;100.00
6599;BME280;3335;43.198;27.918;2023-02-18T01:23:34;148487.09;;;4.83;100.00
6599;BME280;3335;43.198;27.918;2023-02-18T01:26:01;148499.56;;;4.88;100.00
6599;BME280;3335;43.198;27.918;2023-02-18T01:28:28;148494.56;;;4.86;100.00
6599;BME280;3335;43.198;27.918;2023-02-18T01:30:55;148487.09;;;4.83;100.00
6599;BME280;3335;43.198;27.918;2023-02-18T01:33:22;148462.22;;;4.73;100.00
6599;BME280;3335;43.198;27.918;2023-02-18T01:35:51;148454.78;;;4.70;100.00
6599;BME280;3335;43.198;27.918;2023-02-18T01:38:18;148454.78;;;4.70;100.00
6599;BME280;3335;43.198;27.918;2023-02-18T01:40:48;148434.88;;;4.62;100.00
6599;BME280;3335;43.198;27.918;2023-02-18T01:43:17;148447.28;;;4.67;100.00
6599;BME280;3335;43.198;27.918;2023-02-18T01:46:06;148438.59;;;4.63;100.00
6599;BME280;3335;43.198;27.918;2023-02-18T01:48:35;148397.59;;;4.47;100.00
6599;BME280;3335;43.198;27.918;2023-02-18T01:51:08;148465.97;;;4.74;100.00
6599;BME280;3335;43.198;27.918;2023-02-18T01:53:39;148444.81;;;4.66;100.00
6599;BME280;3335;43.198;27.918;2023-02-18T01:56:15;148432.41;;;4.61;100.00
6599;BME280;3335;43.198;27.918;2023-02-18T01:58:44;148429.91;;;4.60;100.00
6599;BME280;3335;43.198;27.918;2023-02-18T02:01:11;148421.19;;;4.56;100.00
6599;BME280;3335;43.198;27.918;2023-02-18T02:03:38;148402.53;;;4.49;100.00
6599;BME280;3335;43.198;27.918;2023-02-18T02:06:13;148375.19;;;4.37;100.00
6599;BME280;3335;43.198;27.918;2023-02-18T02:08:40;148397.59;;;4.47;100.00
6599;BME280;3335;43.198;27.918;2023-02-18T02:11:17;148400.06;;;4.48;100.00
6599;BME280;3335;43.198;27.918;2023-02-18T02:14:06;148418.72;;;4.55;100.00
6599;BME280;3335;43.198;27.918;2023-02-18T02:16:42;148397.59;;;4.47;100.00
6599;BME280;3335;43.198;27.918;2023-02-18T02:19:29;148410.00;;;4.52;100.00
6599;BME280;3335;43.198;27.918;2023-02-18T02:25:14;148382.66;;;4.40;100.00
6599;BME280;3335;43.198;27.918;2023-02-18T02:28:12;148403.78;;;4.49;100.00
6599;BME280;3335;43.198;27.918;2023-02-18T02:31:14;148427.41;;;4.59;100.00
6599;BME280;3335;43.198;27.918;2023-02-18T02:34:28;148439.84;;;4.64;100.00
6599;BME280;3335;43.198;27.918;2023-02-18T02:37:03;148479.63;;;4.80;100.00
6599;BME280;3335;43.198;27.918;2023-02-18T02:39:36;148482.13;;;4.81;100.00
6599;BME280;3335;43.198;27.918;2023-02-18T02:42:12;148487.09;;;4.83;100.00
6599;BME280;3335;43.198;27.918;2023-02-18T02:44:47;148519.44;;;4.96;100.00
6599;BME280;3335;43.198;27.918;2023-02-18T02:47:20;148548.06;;;5.08;100.00
6599;BME280;3335;43.198;27.918;2023-02-18T02:49:57;148570.44;;;5.17;100.00
6599;BME280;3335;43.198;27.918;2023-02-18T02:52:29;148592.84;;;5.26;100.00
6599;BME280;3335;43.198;27.918;2023-02-18T02:54:57;148611.47;;;5.34;100.00
6599;BME280;3335;43.198;27.918;2023-02-18T02:57:42;148616.47;;;5.36;100.00
6599;BME280;3335;43.198;27.918;2023-02-18T03:00:12;148594.09;;;5.26;100.00
6599;BME280;3335;43.198;27.918;2023-02-18T03:05:38;148596.53;;;5.27;100.00
6599;BME280;3335;43.198;27.918;2023-02-18T03:08:24;148591.59;;;5.25;100.00
6599;BME280;3335;43.198;27.918;2023-02-18T03:11:02;148596.53;;;5.27;100.00
6599;BME280;3335;43.198;27.918;2023-02-18T03:13:43;148601.53;;;5.29;100.00
6599;BME280;3335;43.198;27.918;2023-02-18T03:16:22;148601.53;;;5.29;100.00
6599;BME280;3335;43.198;27.918;2023-02-18T03:18:56;148595.34;;;5.27;100.00
6599;BME280;3335;43.198;27.918;2023-02-18T03:21:29;148589.09;;;5.24;100.00
6599;BME280;3335;43.198;27.918;2023-02-18T03:24:00;148596.53;;;5.27;100.00
6599;BME280;3335;43.198;27.918;2023-02-18T03:26:29;148589.09;;;5.24;100.00
6599;BME280;3335;43.198;27.918;2023-02-18T03:29:00;148597.78;;;5.28;100.00
6599;BME280;3335;43.198;27.918;2023-02-18T03:31:29;148618.97;;;5.37;100.00
6599;BME280;3335;43.198;27.918;2023-02-18T03:34:01;148627.69;;;5.40;100.00
6599;BME280;3335;43.198;27.918;2023-02-18T03:36:31;148646.31;;;5.48;100.00
6599;BME280;3335;43.198;27.918;2023-02-18T03:39:02;148668.72;;;5.57;100.00
6599;BME280;3335;43.198;27.918;2023-02-18T03:41:30;148676.22;;;5.60;100.00
6599;BME280;3335;43.198;27.918;2023-02-18T03:44:00;148691.09;;;5.66;100.00
6599;BME280;3335;43.198;27.918;2023-02-18T03:46:27;148708.56;;;5.73;100.00
6599;BME280;3335;43.198;27.918;2023-02-18T03:48:54;148729.69;;;5.82;100.00
6599;BME280;3335;43.198;27.918;2023-02-18T03:51:21;148738.41;;;5.85;100.00
6599;BME280;3335;43.198;27.918;2023-02-18T03:53:50;148760.84;;;5.94;100.00
6599;BME280;3335;43.198;27.918;2023-02-18T03:56:17;148779.56;;;6.02;100.00
6599;BME280;3335;43.198;27.918;2023-02-18T03:58:45;148795.69;;;6.08;100.00
6599;BME280;3335;43.198;27.918;2023-02-18T04:01:12;148805.69;;;6.12;100.00
6599;BME280;3335;43.198;27.918;2023-02-18T04:03:39;148818.16;;;6.18;100.00
6599;BME280;3335;43.198;27.918;2023-02-18T04:06:07;148843.00;;;6.28;100.00
6599;BME280;3335;43.198;27.918;2023-02-18T04:08:34;148862.97;;;6.36;100.00
6599;BME280;3335;43.198;27.918;2023-02-18T04:11:02;148867.94;;;6.38;100.00
6599;BME280;3335;43.198;27.918;2023-02-18T04:13:30;148882.88;;;6.44;100.00
6599;BME280;3335;43.198;27.918;2023-02-18T04:15:57;148916.50;;;6.57;100.00
6599;BME280;3335;43.198;27.918;2023-02-18T04:18:24;148950.13;;;6.71;100.00
6599;BME280;3335;43.198;27.918;2023-02-18T04:20:51;148921.50;;;6.59;100.00
6599;BME280;3335;43.198;27.918;2023-02-18T04:23:18;148990.00;;;6.87;100.00
6599;BME280;3335;43.198;27.918;2023-02-18T04:25:45;148980.03;;;6.83;100.00
6599;BME280;3335;43.198;27.918;2023-02-18T04:28:14;148982.50;;;6.84;100.00
6599;BME280;3335;43.198;27.918;2023-02-18T04:30:42;148990.00;;;6.87;100.00
6599;BME280;3335;43.198;27.918;2023-02-18T04:33:09;149003.69;;;6.93;100.00
6599;BME280;3335;43.198;27.918;2023-02-18T04:35:36;149032.34;;;7.04;100.00
6599;BME280;3335;43.198;27.918;2023-02-18T04:38:05;149054.75;;;7.14;100.00
6599;BME280;3335;43.198;27.918;2023-02-18T04:40:31;149054.75;;;7.14;100.00
6599;BME280;3335;43.198;27.918;2023-02-18T04:42:59;149082.19;;;7.25;100.00
6599;BME280;3335;43.198;27.918;2023-02-18T04:45:28;149082.19;;;7.25;100.00
6599;BME280;3335;43.198;27.918;2023-02-18T04:47:55;149089.63;;;7.28;100.00
6599;BME280;3335;43.198;27.918;2023-02-18T04:50:22;149104.59;;;7.34;100.00
6599;BME280;3335;43.198;27.918;2023-02-18T04:52:49;149012.41;;;6.96;100.00
6599;BME280;3335;43.198;27.918;2023-02-18T04:55:16;149122.06;;;7.41;100.00
6599;BME280;3335;43.198;27.918;2023-02-18T04:57:43;149144.50;;;7.50;100.00
6599;BME280;3335;43.198;27.918;2023-02-18T05:00:14;149154.47;;;7.54;100.00
6599;BME280;3335;43.198;27.918;2023-02-18T05:02:43;149194.31;;;7.70;100.00
6599;BME280;3335;43.198;27.918;2023-02-18T05:05:11;149219.25;;;7.80;100.00
6599;BME280;3335;43.198;27.918;2023-02-18T05:07:38;149176.91;;;7.63;100.00
6599;BME280;3335;43.198;27.918;2023-02-18T05:10:07;149216.75;;;7.79;100.00
6599;BME280;3335;43.198;27.918;2023-02-18T05:12:34;149216.75;;;7.79;100.00
6599;BME280;3335;43.198;27.918;2023-02-18T05:15:01;149230.47;;;7.85;100.00
6599;BME280;3335;43.198;27.918;2023-02-18T05:17:28;149224.25;;;7.82;100.00
6599;BME280;3335;43.198;27.918;2023-02-18T05:19:57;149226.75;;;7.83;100.00
6599;BME280;3335;43.198;27.918;2023-02-18T05:22:24;149213.03;;;7.78;100.00
6599;BME280;3335;43.198;27.918;2023-02-18T05:24:50;149236.72;;;7.87;100.00
6599;BME280;3335;43.198;27.918;2023-02-18T05:27:17;149252.91;;;7.94;100.00
6599;BME280;3335;43.198;27.918;2023-02-18T05:29:44;149249.19;;;7.93;100.00
6599;BME280;3335;43.198;27.918;2023-02-18T05:32:11;149261.66;;;7.98;100.00
6599;BME280;3335;43.198;27.918;2023-02-18T05:34:38;149289.06;;;8.09;100.00
6599;BME280;3335;43.198;27.918;2023-02-18T05:37:06;149323.97;;;8.23;100.00
6599;BME280;3335;43.198;27.918;2023-02-18T05:39:33;149338.97;;;8.29;100.00
6599;BME280;3335;43.198;27.918;2023-02-18T05:42:00;149370.16;;;8.42;100.00
6599;BME280;3335;43.198;27.918;2023-02-18T05:44:27;149377.69;;;8.45;100.00
6599;BME280;3335;43.198;27.918;2023-02-18T05:46:58;149354.00;;;8.35;100.00
6599;BME280;3335;43.198;27.918;2023-02-18T05:49:26;149406.34;;;8.56;100.00
6599;BME280;3335;43.198;27.918;2023-02-18T05:51:53;149382.63;;;8.47;100.00
6599;BME280;3335;43.198;27.918;2023-02-18T05:54:22;149390.16;;;8.50;100.00
6599;BME280;3335;43.198;27.918;2023-02-18T05:56:49;149426.34;;;8.64;100.00
6599;BME280;3335;43.198;27.918;2023-02-18T05:59:16;149451.25;;;8.74;100.00
6599;BME280;3335;43.198;27.918;2023-02-18T06:01:45;149252.91;;;7.94;100.00
6599;BME280;3335;43.198;27.918;2023-02-18T06:04:13;149450.03;;;8.74;100.00
6599;BME280;3335;43.198;27.918;2023-02-18T06:06:40;149471.22;;;8.83;100.00
6599;BME280;3335;43.198;27.918;2023-02-18T06:09:08;149486.16;;;8.89;100.00
6599;BME280;3335;43.198;27.918;2023-02-18T06:11:36;149467.47;;;8.81;100.00
6599;BME280;3335;43.198;27.918;2023-02-18T06:14:03;149468.72;;;8.82;100.00
6599;BME280;3335;43.198;27.918;2023-02-18T06:16:30;149468.72;;;8.82;100.00
6599;BME280;3335;43.198;27.918;2023-02-18T06:18:57;149461.25;;;8.78;100.00
6599;BME280;3335;43.198;27.918;2023-02-18T06:21:24;149398.88;;;8.53;100.00
6599;BME280;3335;43.198;27.918;2023-02-18T06:23:51;149446.28;;;8.72;100.00
6599;BME280;3335;43.198;27.918;2023-02-18T06:26:18;149448.78;;;8.73;100.00
6599;BME280;3335;43.198;27.918;2023-02-18T06:28:47;149417.56;;;8.61;100.00
6599;BME280;3335;43.198;27.918;2023-02-18T06:31:14;149437.56;;;8.69;100.00
6599;BME280;3335;43.198;27.918;2023-02-18T06:33:40;149445.03;;;8.72;100.00
6599;BME280;3335;43.198;27.918;2023-02-18T06:36:09;149448.78;;;8.73;100.00
6599;BME280;3335;43.198;27.918;2023-02-18T06:38:37;149473.72;;;8.84;100.00
6599;BME280;3335;43.198;27.918;2023-02-18T06:41:05;149491.19;;;8.91;100.00
6599;BME280;3335;43.198;27.918;2023-02-18T06:43:32;149477.44;;;8.85;100.00
6599;BME280;3335;43.198;27.918;2023-02-18T06:46:01;149512.38;;;8.99;100.00
6599;BME280;3335;43.198;27.918;2023-02-18T06:48:28;149524.84;;;9.04;100.00
6599;BME280;3335;43.198;27.918;2023-02-18T06:50:55;149543.59;;;9.12;100.00
6599;BME280;3335;43.198;27.918;2023-02-18T06:53:22;149554.84;;;9.16;100.00
6599;BME280;3335;43.198;27.918;2023-02-18T06:55:49;149561.06;;;9.19;100.00
6599;BME280;3335;43.198;27.918;2023-02-18T06:58:16;149568.53;;;9.22;100.00
6599;BME280;3335;43.198;27.918;2023-02-18T07:00:44;149583.50;;;9.28;100.00
6599;BME280;3335;43.198;27.918;2023-02-18T07:03:13;149608.47;;;9.38;100.00
6599;BME280;3335;43.198;27.918;2023-02-18T07:05:40;149635.94;;;9.49;100.00
6599;BME280;3335;43.198;27.918;2023-02-18T07:08:07;149647.19;;;9.54;100.00
6599;BME280;3335;43.198;27.918;2023-02-18T07:10:34;149668.38;;;9.62;100.00
6599;BME280;3335;43.198;27.918;2023-02-18T07:13:01;149684.63;;;9.69;100.00
6599;BME280;3335;43.198;27.918;2023-02-18T07:15:28;149685.84;;;9.70;100.00
6599;BME280;3335;43.198;27.918;2023-02-18T07:17:55;149705.84;;;9.78;100.00
6599;BME280;3335;43.198;27.918;2023-02-18T07:20:23;149724.56;;;9.85;100.00
6599;BME280;3335;43.198;27.918;2023-02-18T07:22:50;149735.78;;;9.90;100.00
6599;BME280;3335;43.198;27.918;2023-02-18T07:25:18;149734.53;;;9.89;100.00
6599;BME280;3335;43.198;27.918;2023-02-18T07:27:45;149720.81;;;9.84;100.00
6599;BME280;3335;43.198;27.918;2023-02-18T07:30:13;149733.28;;;9.89;100.00
6599;BME280;3335;43.198;27.918;2023-02-18T07:32:40;149720.81;;;9.84;100.00
6599;BME280;3335;43.198;27.918;2023-02-18T07:35:07;149725.81;;;9.86;100.00
6599;BME280;3335;43.198;27.918;2023-02-18T07:37:35;149730.84;;;9.88;100.00
6599;BME280;3335;43.198;27.918;2023-02-18T07:40:03;149732.09;;;9.88;100.00
6599;BME280;3335;43.198;27.918;2023-02-18T07:42:30;149730.84;;;9.88;100.00
6599;BME280;3335;43.198;27.918;2023-02-18T07:44:57;149749.53;;;9.95;100.00
6599;BME280;3335;43.198;27.918;2023-02-18T07:47:24;149730.84;;;9.88;100.00
6599;BME280;3335;43.198;27.918;2023-02-18T07:49:51;149747.03;;;9.94;100.00
6599;BME280;3335;43.198;27.918;2023-02-18T07:52:18;149780.75;;;10.08;100.00
6599;BME280;3335;43.198;27.918;2023-02-18T07:54:46;149760.78;;;10.00;100.00
6599;BME280;3335;43.198;27.918;2023-02-18T07:57:14;149765.78;;;10.02;100.00
6599;BME280;3335;43.198;27.918;2023-02-18T07:59:41;149773.25;;;10.05;100.00
6599;BME280;3335;43.198;27.918;2023-02-18T08:02:10;149744.53;;;9.93;100.00
6599;BME280;3335;43.198;27.918;2023-02-18T08:04:40;149778.28;;;10.07;100.00
6599;BME280;3335;43.198;27.918;2023-02-18T08:07:11;149809.53;;;10.20;100.00
6599;BME280;3335;43.198;27.918;2023-02-18T08:09:38;149820.78;;;10.24;100.00
6599;BME280;3335;43.198;27.918;2023-02-18T08:12:07;149845.75;;;10.34;100.00
6599;BME280;3335;43.198;27.918;2023-02-18T08:14:34;149873.19;;;10.45;100.00
6599;BME280;3335;43.198;27.918;2023-02-18T08:17:01;149911.94;;;10.61;100.00
6599;BME280;3335;43.198;27.918;2023-02-18T08:19:28;149935.69;;;10.71;100.00
6599;BME280;3335;43.198;27.918;2023-02-18T08:21:55;149938.19;;;10.72;100.00
6599;BME280;3335;43.198;27.918;2023-02-18T08:24:22;149958.16;;;10.80;100.00
6599;BME280;3335;43.198;27.918;2023-02-18T08:26:49;149978.19;;;10.88;100.00
6599;BME280;3335;43.198;27.918;2023-02-18T08:29:17;150000.69;;;10.97;100.00
6599;BME280;3335;43.198;27.918;2023-02-18T08:31:44;149996.91;;;10.95;100.00
6599;BME280;3335;43.198;27.918;2023-02-18T08:34:11;150044.41;;;11.15;100.00
6599;BME280;3335;43.198;27.918;2023-02-18T08:36:38;150080.66;;;11.29;100.00
6599;BME280;3335;43.198;27.918;2023-02-18T08:39:05;150111.88;;;11.42;100.00
6599;BME280;3335;43.198;27.918;2023-02-18T08:41:32;150133.13;;;11.51;100.00
6599;BME280;3335;43.198;27.918;2023-02-18T08:43:58;150150.66;;;11.58;100.00
6599;BME280;3335;43.198;27.918;2023-02-18T08:46:27;150149.38;;;11.57;100.00
6599;BME280;3335;43.198;27.918;2023-02-18T08:48:54;150180.63;;;11.70;100.00
6599;BME280;3335;43.198;27.918;2023-02-18T08:51:21;150213.22;;;11.83;100.00
6599;BME280;3335;43.198;27.918;2023-02-18T08:53:49;150243.22;;;11.95;100.00
6599;BME280;3335;43.198;27.918;2023-02-18T08:56:16;150273.19;;;12.07;100.00
6599;BME280;3335;43.198;27.918;2023-02-18T08:58:43;150294.50;;;12.16;100.00
6599;BME280;3335;43.198;27.918;2023-02-18T09:01:12;150340.78;;;12.35;100.00
6599;BME280;3335;43.198;27.918;2023-02-18T09:03:40;150370.78;;;12.47;100.00
6599;BME280;3335;43.198;27.918;2023-02-18T09:06:07;150393.28;;;12.56;99.46
6599;BME280;3335;43.198;27.918;2023-02-18T09:08:34;150339.53;;;12.34;98.18
6599;BME280;3335;43.198;27.918;2023-02-18T09:11:02;150478.38;;;12.90;96.24
6599;BME280;3335;43.198;27.918;2023-02-18T09:13:30;150515.94;;;13.05;92.95
6599;BME280;3335;43.198;27.918;2023-02-18T09:15:59;150573.56;;;13.29;89.85
6599;BME280;3335;43.198;27.918;2023-02-18T09:18:26;150651.16;;;13.60;85.31
6599;BME280;3335;43.198;27.918;2023-02-18T09:20:57;150688.72;;;13.75;81.25
6599;BME280;3335;43.198;27.918;2023-02-18T09:23:25;150738.81;;;13.95;79.45
6599;BME280;3335;43.198;27.918;2023-02-18T09:25:52;150781.38;;;14.13;77.49
6599;BME280;3335;43.198;27.918;2023-02-18T09:28:19;150826.47;;;14.31;74.94
6599;BME280;3335;43.198;27.918;2023-02-18T09:30:46;150828.97;;;14.32;74.39
6599;BME280;3335;43.198;27.918;2023-02-18T09:33:14;150859.13;;;14.44;72.32
6599;BME280;3335;43.198;27.918;2023-02-18T09:35:42;150892.94;;;14.58;69.97
6599;BME280;3335;43.198;27.918;2023-02-18T09:38:12;150869.13;;;14.48;69.28
6599;BME280;3335;43.198;27.918;2023-02-18T09:40:43;150929.28;;;14.72;69.32
6599;BME280;3335;43.198;27.918;2023-02-18T09:43:20;150949.31;;;14.80;68.32
6599;BME280;3335;43.198;27.918;2023-02-18T09:45:49;150956.81;;;14.83;68.52
6599;BME280;3335;43.198;27.918;2023-02-18T09:48:17;150956.81;;;14.83;69.99
6599;BME280;3335;43.198;27.918;2023-02-18T09:50:48;150973.13;;;14.90;69.15
6599;BME280;3335;43.198;27.918;2023-02-18T09:53:20;150998.19;;;15.00;66.36
6599;BME280;3335;43.198;27.918;2023-02-18T09:55:48;151004.44;;;15.03;63.26
6599;BME280;3335;43.198;27.918;2023-02-18T09:58:19;151079.66;;;15.33;61.85
6599;BME280;3335;43.198;27.918;2023-02-18T10:00:49;151082.16;;;15.34;60.59
6599;BME280;3335;43.198;27.918;2023-02-18T10:03:18;151106.00;;;15.44;59.61
6599;BME280;3335;43.198;27.918;2023-02-18T10:05:53;151114.75;;;15.47;59.39
6599;BME280;3335;43.198;27.918;2023-02-18T10:08:25;151127.34;;;15.52;59.17
6599;BME280;3335;43.198;27.918;2023-02-18T10:10:53;151112.25;;;15.46;58.65
6599;BME280;3335;43.198;27.918;2023-02-18T10:13:22;151137.38;;;15.56;58.75
6599;BME280;3335;43.198;27.918;2023-02-18T10:15:50;151129.88;;;15.53;58.43
6599;BME280;3335;43.198;27.918;2023-02-18T10:18:24;151157.41;;;15.64;57.94
6599;BME280;3335;43.198;27.918;2023-02-18T10:20:55;151161.19;;;15.66;57.85
6599;BME280;3335;43.198;27.918;2023-02-18T10:23:24;151175.00;;;15.71;57.74
6599;BME280;3335;43.198;27.918;2023-02-18T10:25:54;151153.69;;;15.63;57.58
6599;BME280;3335;43.198;27.918;2023-02-18T10:28:23;151177.50;;;15.72;57.92
6599;BME280;3335;43.198;27.918;2023-02-18T10:30:56;151171.22;;;15.70;58.38
6599;BME280;3335;43.198;27.918;2023-02-18T10:33:33;151196.31;;;15.80;58.21
6599;BME280;3335;43.198;27.918;2023-02-18T10:36:10;151220.13;;;15.90;57.79
6599;BME280;3335;43.198;27.918;2023-02-18T10:38:51;151216.34;;;15.88;58.28
6599;BME280;3335;43.198;27.918;2023-02-18T10:41:29;151235.19;;;15.96;58.69
6599;BME280;3335;43.198;27.918;2023-02-18T10:44:04;151247.72;;;16.01;59.10
6599;BME280;3335;43.198;27.918;2023-02-18T10:46:38;151261.47;;;16.06;59.09
6599;BME280;3335;43.198;27.918;2023-02-18T10:49:31;151277.81;;;16.13;59.19
6599;BME280;3335;43.198;27.918;2023-02-18T10:52:01;151297.88;;;16.21;59.67
6599;BME280;3335;43.198;27.918;2023-02-18T10:54:49;151257.75;;;16.05;60.05
6599;BME280;3335;43.198;27.918;2023-02-18T10:57:17;151290.34;;;16.18;59.97
6599;BME280;3335;43.198;27.918;2023-02-18T10:59:54;151317.97;;;16.29;59.61
6599;BME280;3335;43.198;27.918;2023-02-18T11:02:23;151320.44;;;16.30;60.29
6599;BME280;3335;43.198;27.918;2023-02-18T11:04:51;151345.53;;;16.40;59.88
6599;BME280;3335;43.198;27.918;2023-02-18T11:07:21;151388.22;;;16.57;60.32
6599;BME280;3335;43.198;27.918;2023-02-18T11:09:51;151393.25;;;16.59;60.28
6599;BME280;3335;43.198;27.918;2023-02-18T11:12:22;151383.19;;;16.55;61.21
6599;BME280;3335;43.198;27.918;2023-02-18T11:15:06;151408.31;;;16.66;62.42
6599;BME280;3335;43.198;27.918;2023-02-18T11:17:34;151400.81;;;16.63;63.63
6599;BME280;3335;43.198;27.918;2023-02-18T11:20:20;151407.06;;;16.65;65.32
6599;BME280;3335;43.198;27.918;2023-02-18T11:22:48;151422.13;;;16.71;66.37
6599;BME280;3335;43.198;27.918;2023-02-18T11:25:21;151463.50;;;16.88;66.25
6599;BME280;3335;43.198;27.918;2023-02-18T11:27:50;151462.25;;;16.87;67.89
6599;BME280;3335;43.198;27.918;2023-02-18T11:30:21;151501.19;;;17.03;74.80
6599;BME280;3335;43.198;27.918;2023-02-18T11:32:50;151522.50;;;17.12;70.16
6599;BME280;3335;43.198;27.918;2023-02-18T11:35:21;151507.47;;;17.05;70.98
6599;BME280;3335;43.198;27.918;2023-02-18T11:37:49;151532.53;;;17.16;69.37
6599;BME280;3335;43.198;27.918;2023-02-18T11:42:51;151581.50;;;17.35;67.98
6599;BME280;3335;43.198;27.918;2023-02-18T11:45:26;151606.63;;;17.45;67.33
6599;BME280;3335;43.198;27.918;2023-02-18T11:47:58;151624.22;;;17.53;66.74
6599;BME280;3335;43.198;27.918;2023-02-18T11:50:30;151630.47;;;17.55;66.80
6599;BME280;3335;43.198;27.918;2023-02-18T11:52:57;151644.31;;;17.61;66.56
6599;BME280;3335;43.198;27.918;2023-02-18T11:55:27;151660.66;;;17.67;65.35
6599;BME280;3335;43.198;27.918;2023-02-18T11:57:57;151692.03;;;17.80;65.57
6599;BME280;3335;43.198;27.918;2023-02-18T12:00:36;151704.59;;;17.85;64.20
6599;BME280;3335;43.198;27.918;2023-02-18T12:03:12;151684.53;;;17.77;65.63
6599;BME280;3335;43.198;27.918;2023-02-18T12:05:41;151690.78;;;17.79;64.20
6599;BME280;3335;43.198;27.918;2023-02-18T12:08:13;151674.44;;;17.73;65.63
6599;BME280;3335;43.198;27.918;2023-02-18T12:10:47;151687.00;;;17.78;65.54
6599;BME280;3335;43.198;27.918;2023-02-18T12:13:23;151673.22;;;17.72;65.69
6599;BME280;3335;43.198;27.918;2023-02-18T12:16:03;151656.88;;;17.66;65.67
6599;BME280;3335;43.198;27.918;2023-02-18T12:18:51;151649.38;;;17.63;66.38
6599;BME280;3335;43.198;27.918;2023-02-18T12:21:32;151635.50;;;17.57;67.05
6599;BME280;3335;43.198;27.918;2023-02-18T12:24:08;151654.38;;;17.65;67.14
6599;BME280;3335;43.198;27.918;2023-02-18T12:26:48;151651.84;;;17.64;66.63
6599;BME280;3335;43.198;27.918;2023-02-18T12:29:31;151641.81;;;17.60;66.83
6599;BME280;3335;43.198;27.918;2023-02-18T12:32:16;151631.72;;;17.56;67.62
6599;BME280;3335;43.198;27.918;2023-02-18T12:34:55;151616.66;;;17.49;68.54
6599;BME280;3335;43.198;27.918;2023-02-18T12:37:53;151631.72;;;17.56;67.84
6599;BME280;3335;43.198;27.918;2023-02-18T12:40:37;151560.16;;;17.27;68.27
6599;BME280;3335;43.198;27.918;2023-02-18T12:43:12;151606.63;;;17.45;70.42
6599;BME280;3335;43.198;27.918;2023-02-18T12:45:55;151614.19;;;17.48;70.23
6599;BME280;3335;43.198;27.918;2023-02-18T12:48:42;151601.63;;;17.43;71.62
6599;BME280;3335;43.198;27.918;2023-02-18T12:51:25;151596.56;;;17.41;72.87
6599;BME280;3335;43.198;27.918;2023-02-18T12:54:18;151581.50;;;17.35;74.13
6599;BME280;3335;43.198;27.918;2023-02-18T13:03:02;151578.97;;;17.34;73.28
6599;BME280;3335;43.198;27.918;2023-02-18T13:05:36;151561.44;;;17.27;74.31
6599;BME280;3335;43.198;27.918;2023-02-18T13:08:17;151547.59;;;17.22;74.92
6599;BME280;3335;43.198;27.918;2023-02-18T13:10:53;151523.75;;;17.12;75.83
6599;BME280;3335;43.198;27.918;2023-02-18T13:13:24;151512.47;;;17.08;77.88
6599;BME280;3335;43.198;27.918;2023-02-18T13:15:56;151450.97;;;16.83;76.39
6599;BME280;3335;43.198;27.918;2023-02-18T13:18:28;151516.25;;;17.09;76.00
6599;BME280;3335;43.198;27.918;2023-02-18T13:20:58;151506.22;;;17.05;76.69
6599;BME280;3335;43.198;27.918;2023-02-18T13:23:28;151496.19;;;17.01;76.50
6599;BME280;3335;43.198;27.918;2023-02-18T13:25:59;151486.09;;;16.97;76.70
6599;BME280;3335;43.198;27.918;2023-02-18T13:28:30;151483.63;;;16.96;77.48
6599;BME280;3335;43.198;27.918;2023-02-18T13:31:14;151468.56;;;16.90;77.73